Aviation Digital Data Service (ADDS)

Output produced by METARs form (1426 UTC 25 April 2015)
found at http://aviationweather.gov/adds/metars/
 
KARA 251143Z 2512/2612 17005KT 4SM BR FEW008 SCT015 OVC250 
     TEMPO 2514/2518 3SM -SHRA OVC015 
     FM251800 22012G18KT P6SM BKN025 
     FM260100 VRB03KT 4SM BR OVC015